createdAt,value
2017-03-23T00:00:54.645Z,0
2017-03-23T00:02:06.849Z,0
2017-03-23T00:03:19.092Z,0
2017-03-23T00:04:31.612Z,0
2017-03-23T00:05:44.132Z,0
2017-03-23T00:06:56.358Z,0
2017-03-23T00:08:08.904Z,0
2017-03-23T00:09:21.424Z,0
2017-03-23T00:10:33.342Z,0
2017-03-23T00:11:45.567Z,0
2017-03-23T00:12:57.784Z,0
2017-03-23T00:14:09.984Z,0
2017-03-23T00:15:22.194Z,0
2017-03-23T00:16:34.750Z,0
2017-03-23T00:17:46.686Z,0
2017-03-23T00:18:59.216Z,0
2017-03-23T00:20:11.760Z,0
2017-03-23T00:21:24.283Z,0
2017-03-23T00:22:36.519Z,0
2017-03-23T00:23:48.422Z,0
2017-03-23T00:25:00.335Z,0
2017-03-23T00:26:12.240Z,0
2017-03-23T00:27:24.159Z,0
2017-03-23T00:28:36.057Z,0
2017-03-23T00:29:48.298Z,0
2017-03-23T00:31:00.500Z,0
2017-03-23T00:32:13.036Z,0
2017-03-23T00:33:25.568Z,0
2017-03-23T00:34:38.085Z,0
2017-03-23T00:35:50.631Z,0
2017-03-23T00:37:02.554Z,0
2017-03-23T00:38:14.793Z,0
2017-03-23T00:39:27.027Z,0
2017-03-23T00:40:39.569Z,0
2017-03-23T00:41:52.086Z,0
2017-03-23T00:43:04.300Z,0
2017-03-23T00:44:16.832Z,0
2017-03-23T00:45:29.049Z,0
2017-03-23T00:46:41.587Z,0
2017-03-23T00:47:53.508Z,0
2017-03-23T00:49:06.012Z,0
2017-03-23T00:50:18.528Z,0
2017-03-23T00:51:31.032Z,0
2017-03-23T00:52:43.275Z,0
2017-03-23T00:53:55.476Z,0
2017-03-23T00:55:07.720Z,0
2017-03-23T00:56:20.236Z,0
2017-03-23T00:57:32.463Z,0
2017-03-23T00:58:44.408Z,0
2017-03-23T00:59:56.979Z,0
2017-03-23T01:01:09.521Z,0
2017-03-23T01:02:22.044Z,0
2017-03-23T01:03:34.590Z,0
2017-03-23T01:04:46.784Z,0
2017-03-23T01:05:58.996Z,0
2017-03-23T01:07:11.450Z,0
2017-03-23T01:08:23.971Z,0
2017-03-23T01:09:36.167Z,0
2017-03-23T01:10:48.691Z,0
2017-03-23T01:12:00.601Z,0
2017-03-23T01:13:12.808Z,0
2017-03-23T01:14:25.353Z,0
2017-03-23T01:15:37.599Z,0
2017-03-23T01:16:49.813Z,0
2017-03-23T01:18:01.755Z,0
2017-03-23T01:19:14.287Z,0
2017-03-23T01:20:26.809Z,0
2017-03-23T01:21:39.346Z,0
2017-03-23T01:22:51.551Z,0
2017-03-23T01:24:03.770Z,0
2017-03-23T01:25:16.289Z,0
2017-03-23T01:26:28.785Z,0
2017-03-23T01:27:41.308Z,0
2017-03-23T01:28:53.531Z,0
2017-03-23T01:30:06.065Z,0
2017-03-23T01:31:18.572Z,0
2017-03-23T01:32:31.094Z,0
2017-03-23T01:33:43.653Z,0
2017-03-23T01:34:55.881Z,0
2017-03-23T01:36:08.381Z,0
2017-03-23T01:37:20.915Z,0
2017-03-23T01:38:33.144Z,0
2017-03-23T01:39:45.940Z,0
2017-03-23T01:40:58.136Z,0
2017-03-23T01:42:10.359Z,0
2017-03-23T01:43:22.599Z,0
2017-03-23T01:44:35.123Z,0
2017-03-23T01:45:47.050Z,0
2017-03-23T01:46:58.970Z,0
2017-03-23T01:48:11.517Z,0
2017-03-23T01:49:24.032Z,0
2017-03-23T01:50:36.578Z,0
2017-03-23T01:51:48.499Z,0
2017-03-23T01:53:00.698Z,0
2017-03-23T01:54:13.237Z,0
2017-03-23T01:55:25.761Z,0
2017-03-23T01:56:37.685Z,0
2017-03-23T01:57:49.598Z,0
2017-03-23T01:59:01.846Z,0
2017-03-23T02:00:14.379Z,0
2017-03-23T02:01:26.919Z,0
2017-03-23T02:02:39.440Z,0
2017-03-23T02:03:51.683Z,0
2017-03-23T02:05:04.199Z,0
2017-03-23T02:06:15.825Z,0
2017-03-23T02:07:28.367Z,0
2017-03-23T02:08:40.295Z,0
2017-03-23T02:09:52.834Z,0
2017-03-23T02:11:05.058Z,0
2017-03-23T02:12:17.300Z,0
2017-03-23T02:13:29.826Z,0
2017-03-23T02:14:42.325Z,0
2017-03-23T02:15:54.220Z,0
2017-03-23T02:17:06.738Z,0
2017-03-23T02:18:19.262Z,0
2017-03-23T02:19:31.805Z,0
2017-03-23T02:20:43.747Z,0
2017-03-23T02:21:55.975Z,0
2017-03-23T02:23:08.223Z,0
2017-03-23T02:24:20.466Z,0
2017-03-23T02:25:32.731Z,0
2017-03-23T02:26:45.255Z,0
2017-03-23T02:27:57.181Z,0
2017-03-23T02:29:09.697Z,0
2017-03-23T02:30:22.240Z,0
2017-03-23T02:31:34.742Z,0
2017-03-23T02:32:46.366Z,0
2017-03-23T02:33:58.574Z,0
2017-03-23T02:35:10.506Z,0
2017-03-23T02:36:22.768Z,0
2017-03-23T02:37:34.997Z,0
2017-03-23T02:38:47.515Z,0
2017-03-23T02:39:59.766Z,0
2017-03-23T02:41:11.985Z,0
2017-03-23T02:42:24.484Z,0
2017-03-23T02:43:36.719Z,0
2017-03-23T02:44:48.947Z,0
2017-03-23T02:46:01.145Z,0
2017-03-23T02:47:13.090Z,0
2017-03-23T02:48:25.635Z,0
2017-03-23T02:49:38.153Z,0
2017-03-23T02:50:50.692Z,0
2017-03-23T02:52:02.915Z,0
2017-03-23T02:53:15.170Z,0
2017-03-23T02:54:27.712Z,0
2017-03-23T02:55:40.237Z,0
2017-03-23T02:56:52.449Z,0
2017-03-23T02:58:04.974Z,0
2017-03-23T02:59:17.203Z,0
2017-03-23T03:00:29.763Z,0
2017-03-23T03:01:41.988Z,0
2017-03-23T03:02:54.212Z,0
2017-03-23T03:04:06.454Z,0
2017-03-23T03:05:19.003Z,0
2017-03-23T03:06:31.239Z,0
2017-03-23T03:07:43.475Z,0
2017-03-23T03:08:56.013Z,0
2017-03-23T03:10:07.640Z,0
2017-03-23T03:11:20.182Z,0
2017-03-23T03:12:32.701Z,0
2017-03-23T03:13:44.921Z,0
2017-03-23T03:14:56.517Z,0
2017-03-23T03:16:09.060Z,0
2017-03-23T03:17:21.584Z,0
2017-03-23T03:18:33.823Z,0
2017-03-23T03:19:45.729Z,0
2017-03-23T03:20:57.643Z,0
2017-03-23T03:22:09.576Z,0
2017-03-23T03:23:21.469Z,0
2017-03-23T03:24:33.984Z,0
2017-03-23T03:25:45.585Z,0
2017-03-23T03:26:58.119Z,0
2017-03-23T03:28:10.365Z,0
2017-03-23T03:29:22.597Z,0
2017-03-23T03:30:35.115Z,0
2017-03-23T03:31:47.014Z,0
2017-03-23T03:32:59.224Z,0
2017-03-23T03:34:11.732Z,0
2017-03-23T03:35:24.272Z,0
2017-03-23T03:36:36.536Z,0
2017-03-23T03:37:48.767Z,0
2017-03-23T03:39:01.589Z,0
2017-03-23T03:40:13.508Z,0
2017-03-23T03:41:26.045Z,0
2017-03-23T03:42:38.591Z,0
2017-03-23T03:43:51.094Z,0
2017-03-23T03:45:03.296Z,0
2017-03-23T03:46:15.841Z,0
2017-03-23T03:47:28.386Z,0
2017-03-23T03:48:40.933Z,0
2017-03-23T03:49:53.470Z,0
2017-03-23T03:51:05.698Z,0
2017-03-23T03:52:17.945Z,0
2017-03-23T03:53:30.465Z,0
2017-03-23T03:54:42.984Z,0
2017-03-23T03:55:54.911Z,0
2017-03-23T03:57:07.150Z,0
2017-03-23T03:58:19.053Z,0
2017-03-23T03:59:31.287Z,0
2017-03-23T04:00:43.517Z,0
2017-03-23T04:01:56.089Z,0
2017-03-23T04:03:08.322Z,0
2017-03-23T04:04:20.527Z,0
2017-03-23T04:05:33.072Z,0
2017-03-23T04:06:44.995Z,0
2017-03-23T04:07:57.244Z,0
2017-03-23T04:09:09.734Z,0
2017-03-23T04:10:21.930Z,0
2017-03-23T04:11:34.418Z,0
2017-03-23T04:12:46.068Z,0
2017-03-23T04:13:58.598Z,0
2017-03-23T04:15:10.813Z,0
2017-03-23T04:16:23.027Z,0
2017-03-23T04:17:35.558Z,0
2017-03-23T04:18:47.451Z,0
2017-03-23T04:19:59.672Z,0
2017-03-23T04:21:11.899Z,0
2017-03-23T04:22:24.389Z,0
2017-03-23T04:23:36.602Z,0
2017-03-23T04:24:48.859Z,0
2017-03-23T04:26:01.094Z,0
2017-03-23T04:27:13.619Z,0
2017-03-23T04:28:25.548Z,0
2017-03-23T04:29:37.769Z,0
2017-03-23T04:30:49.989Z,0
2017-03-23T04:32:01.927Z,0
2017-03-23T04:33:14.680Z,0
2017-03-23T04:34:26.918Z,0
2017-03-23T04:35:39.446Z,0
2017-03-23T04:36:51.340Z,0
2017-03-23T04:38:03.540Z,0
2017-03-23T04:39:16.081Z,0
2017-03-23T04:40:28.296Z,0
2017-03-23T04:41:40.853Z,0
2017-03-23T04:42:52.774Z,0
2017-03-23T04:44:04.676Z,0
2017-03-23T04:45:16.930Z,0
2017-03-23T04:46:29.437Z,0
2017-03-23T04:47:41.355Z,0
2017-03-23T04:48:53.567Z,0
2017-03-23T04:50:06.116Z,0
2017-03-23T04:51:18.641Z,0
2017-03-23T04:52:30.862Z,0
2017-03-23T04:53:43.386Z,0
2017-03-23T04:54:55.604Z,0
2017-03-23T04:56:08.168Z,0
2017-03-23T04:57:20.371Z,5
2017-03-23T04:58:32.592Z,5
2017-03-23T04:59:44.833Z,5
2017-03-23T05:00:57.359Z,5
2017-03-23T05:02:09.874Z,5
2017-03-23T05:03:22.097Z,5
2017-03-23T05:04:34.329Z,5
2017-03-23T05:05:46.859Z,10
2017-03-23T05:06:59.363Z,10
2017-03-23T05:08:11.577Z,10
2017-03-23T05:09:23.805Z,10
2017-03-23T05:10:36.301Z,10
2017-03-23T05:11:48.503Z,15
2017-03-23T05:13:00.718Z,15
2017-03-23T05:14:12.660Z,15
2017-03-23T05:15:25.188Z,15
2017-03-23T05:16:37.062Z,15
2017-03-23T05:17:48.985Z,15
2017-03-23T05:19:01.226Z,20
2017-03-23T05:20:13.173Z,20
2017-03-23T05:21:25.715Z,20
2017-03-23T05:22:38.228Z,25
2017-03-23T05:23:50.733Z,25
2017-03-23T05:25:01.755Z,25
2017-03-23T05:26:13.693Z,25
2017-03-23T05:27:25.895Z,25
2017-03-23T05:28:37.795Z,25
2017-03-23T05:29:49.711Z,30
2017-03-23T05:31:01.909Z,30
2017-03-23T05:32:14.408Z,30
2017-03-23T05:33:26.648Z,35
2017-03-23T05:34:38.890Z,35
2017-03-23T05:35:51.099Z,40
2017-03-23T05:37:03.357Z,40
2017-03-23T05:38:16.186Z,45
2017-03-23T05:39:28.682Z,45
2017-03-23T05:40:40.899Z,45
2017-03-23T05:41:53.124Z,45
2017-03-23T05:43:05.033Z,50
2017-03-23T05:44:17.514Z,50
2017-03-23T05:45:29.737Z,50
2017-03-23T05:46:42.299Z,55
2017-03-23T05:47:54.541Z,55
2017-03-23T05:49:06.472Z,60
2017-03-23T05:50:18.999Z,60
2017-03-23T05:51:31.562Z,65
2017-03-23T05:52:44.060Z,70
2017-03-23T05:53:56.300Z,75
2017-03-23T05:55:08.825Z,80
2017-03-23T05:56:21.025Z,85
2017-03-23T05:57:33.271Z,85
2017-03-23T05:58:45.859Z,90
2017-03-23T05:59:58.385Z,90
2017-03-23T06:01:10.609Z,95
2017-03-23T06:02:22.529Z,100
2017-03-23T06:03:35.043Z,105
2017-03-23T06:04:47.570Z,105
2017-03-23T06:05:59.491Z,110
2017-03-23T06:07:11.740Z,110
2017-03-23T06:08:24.260Z,110
2017-03-23T06:09:36.751Z,105
2017-03-23T06:10:48.651Z,105
2017-03-23T06:12:00.872Z,100
2017-03-23T06:13:13.423Z,100
2017-03-23T06:14:25.977Z,105
2017-03-23T06:15:38.525Z,110
2017-03-23T06:16:51.054Z,120
2017-03-23T06:18:03.572Z,120
2017-03-23T06:19:16.099Z,115
2017-03-23T06:20:28.344Z,120
2017-03-23T06:21:41.159Z,125
2017-03-23T06:22:53.083Z,130
2017-03-23T06:24:05.601Z,135
2017-03-23T06:25:17.831Z,145
2017-03-23T06:26:30.371Z,150
2017-03-23T06:27:42.889Z,150
2017-03-23T06:28:54.818Z,150
2017-03-23T06:30:06.777Z,150
2017-03-23T06:31:18.695Z,150
2017-03-23T06:32:31.203Z,155
2017-03-23T06:33:43.770Z,155
2017-03-23T06:34:55.965Z,160
2017-03-23T06:36:08.503Z,160
2017-03-23T06:37:20.452Z,160
2017-03-23T06:38:32.974Z,155
2017-03-23T06:39:45.478Z,145
2017-03-23T06:40:57.425Z,140
2017-03-23T06:42:09.969Z,135
2017-03-23T06:43:22.740Z,130
2017-03-23T06:44:34.934Z,130
2017-03-23T06:45:47.156Z,125
2017-03-23T06:46:59.378Z,120
2017-03-23T06:48:11.297Z,115
2017-03-23T06:49:23.834Z,110
2017-03-23T06:50:36.337Z,105
2017-03-23T06:51:48.892Z,105
2017-03-23T06:53:01.124Z,110
2017-03-23T06:54:13.644Z,110
2017-03-23T06:55:25.920Z,115
2017-03-23T06:56:38.466Z,115
2017-03-23T06:57:50.987Z,120
2017-03-23T06:59:02.926Z,120
2017-03-23T07:00:15.477Z,125
2017-03-23T07:01:27.979Z,125
2017-03-23T07:02:40.198Z,125
2017-03-23T07:03:51.809Z,125
2017-03-23T07:05:04.360Z,125
2017-03-23T07:06:16.880Z,125
2017-03-23T07:07:29.426Z,130
2017-03-23T07:08:41.976Z,135
2017-03-23T07:09:54.526Z,140
2017-03-23T07:11:07.045Z,150
2017-03-23T07:12:19.268Z,160
2017-03-23T07:13:31.209Z,165
2017-03-23T07:14:43.733Z,170
2017-03-23T07:15:56.225Z,180
2017-03-23T07:17:08.401Z,185
2017-03-23T07:18:20.920Z,190
2017-03-23T07:19:33.142Z,190
2017-03-23T07:20:45.395Z,195
2017-03-23T07:21:57.623Z,200
2017-03-23T07:23:10.147Z,205
2017-03-23T07:24:22.651Z,220
2017-03-23T07:25:34.885Z,235
2017-03-23T07:26:46.792Z,260
2017-03-23T07:27:59.352Z,285
2017-03-23T07:29:11.910Z,305
2017-03-23T07:30:24.499Z,310
2017-03-23T07:31:36.728Z,315
2017-03-23T07:32:48.647Z,330
2017-03-23T07:34:01.220Z,340
2017-03-23T07:35:13.506Z,355
2017-03-23T07:36:26.006Z,375
2017-03-23T07:37:37.953Z,395
2017-03-23T07:38:49.574Z,405
2017-03-23T07:40:01.815Z,415
2017-03-23T07:41:14.045Z,425
2017-03-23T07:42:26.261Z,435
2017-03-23T07:43:38.532Z,445
2017-03-23T07:44:50.803Z,455
2017-03-23T07:46:03.342Z,460
2017-03-23T07:47:15.550Z,465
2017-03-23T07:48:28.041Z,470
2017-03-23T07:49:40.279Z,485
2017-03-23T07:50:52.799Z,485
2017-03-23T07:52:04.746Z,485
2017-03-23T07:53:17.294Z,470
2017-03-23T07:54:29.499Z,450
2017-03-23T07:55:42.033Z,420
2017-03-23T07:56:54.543Z,405
2017-03-23T07:58:07.083Z,395
2017-03-23T07:59:18.982Z,405
2017-03-23T08:00:31.507Z,435
2017-03-23T08:01:43.437Z,465
2017-03-23T08:02:55.371Z,465
2017-03-23T08:04:07.892Z,455
2017-03-23T08:05:20.434Z,445
2017-03-23T08:06:32.055Z,420
2017-03-23T08:07:44.276Z,405
2017-03-23T08:08:56.776Z,400
2017-03-23T08:10:09.268Z,385
2017-03-23T08:11:21.535Z,395
2017-03-23T08:12:33.459Z,405
2017-03-23T08:13:45.976Z,405
2017-03-23T08:14:58.204Z,405
2017-03-23T08:16:10.723Z,410
2017-03-23T08:17:22.631Z,415
2017-03-23T08:18:35.114Z,410
2017-03-23T08:19:47.352Z,405
2017-03-23T08:20:59.859Z,415
2017-03-23T08:22:12.081Z,420
2017-03-23T08:23:24.275Z,410
2017-03-23T08:24:36.244Z,400
2017-03-23T08:25:48.789Z,395
2017-03-23T08:27:00.728Z,390
2017-03-23T08:28:13.234Z,370
2017-03-23T08:29:25.457Z,360
2017-03-23T08:30:37.715Z,360
2017-03-23T08:31:49.926Z,365
2017-03-23T08:33:02.494Z,370
2017-03-23T08:34:14.711Z,360
2017-03-23T08:35:26.949Z,365
2017-03-23T08:36:39.507Z,385
2017-03-23T08:37:52.028Z,415
2017-03-23T08:39:04.544Z,435
2017-03-23T08:40:17.069Z,460
2017-03-23T08:41:28.708Z,495
2017-03-23T08:42:41.249Z,525
2017-03-23T08:43:53.478Z,525
2017-03-23T08:45:05.703Z,515
2017-03-23T08:46:18.249Z,520
2017-03-23T08:47:30.486Z,515
2017-03-23T08:48:42.112Z,515
2017-03-23T08:49:54.665Z,525
2017-03-23T08:51:07.209Z,525
2017-03-23T08:52:19.750Z,530
2017-03-23T08:53:32.276Z,540
2017-03-23T08:54:44.791Z,570
2017-03-23T08:55:57.313Z,595
2017-03-23T08:57:09.836Z,610
2017-03-23T08:58:22.072Z,620
2017-03-23T08:59:34.318Z,640
2017-03-23T09:00:46.863Z,650
2017-03-23T09:01:59.411Z,645
2017-03-23T09:03:11.942Z,620
2017-03-23T09:04:24.477Z,585
2017-03-23T09:05:37.008Z,535
2017-03-23T09:06:49.576Z,500
2017-03-23T09:08:02.114Z,485
2017-03-23T09:09:14.345Z,495
2017-03-23T09:10:26.893Z,515
2017-03-23T09:11:39.440Z,530
2017-03-23T09:12:51.655Z,530
2017-03-23T09:14:03.879Z,535
2017-03-23T09:15:16.107Z,550
2017-03-23T09:16:28.344Z,570
2017-03-23T09:17:40.564Z,585
2017-03-23T09:18:53.063Z,595
2017-03-23T09:20:05.290Z,610
2017-03-23T09:21:17.826Z,630
2017-03-23T09:22:30.064Z,655
2017-03-23T09:23:42.293Z,665
2017-03-23T09:24:54.835Z,670
2017-03-23T09:26:07.080Z,700
2017-03-23T09:27:19.023Z,740
2017-03-23T09:28:31.552Z,820
2017-03-23T09:29:44.076Z,895
2017-03-23T09:30:56.625Z,940
2017-03-23T09:32:09.143Z,920
2017-03-23T09:33:21.677Z,870
2017-03-23T09:34:33.625Z,835
2017-03-23T09:35:46.183Z,835
2017-03-23T09:36:58.699Z,830
2017-03-23T09:38:10.620Z,805
2017-03-23T09:39:23.158Z,770
2017-03-23T09:40:35.461Z,730
2017-03-23T09:41:47.987Z,695
2017-03-23T09:43:00.520Z,675
2017-03-23T09:44:12.770Z,690
2017-03-23T09:45:24.695Z,735
2017-03-23T09:46:37.220Z,775
2017-03-23T09:47:49.740Z,785
2017-03-23T09:49:02.290Z,820
2017-03-23T09:50:14.551Z,825
2017-03-23T09:51:26.479Z,815
2017-03-23T09:52:39.016Z,800
2017-03-23T09:53:51.263Z,765
2017-03-23T09:55:03.505Z,740
2017-03-23T09:56:15.434Z,735
2017-03-23T09:57:27.979Z,725
2017-03-23T09:58:40.503Z,700
2017-03-23T09:59:53.042Z,680
2017-03-23T10:01:05.285Z,660
2017-03-23T10:02:17.833Z,625
2017-03-23T10:03:30.380Z,625
2017-03-23T10:04:42.904Z,625
2017-03-23T10:05:55.446Z,635
2017-03-23T10:07:07.974Z,675
2017-03-23T10:08:20.217Z,750
2017-03-23T10:09:32.733Z,805
2017-03-23T10:10:45.275Z,850
2017-03-23T10:11:57.497Z,875
2017-03-23T10:13:09.446Z,890
2017-03-23T10:14:21.989Z,895
2017-03-23T10:15:34.210Z,845
2017-03-23T10:16:46.743Z,785
2017-03-23T10:17:58.987Z,730
2017-03-23T10:19:11.509Z,675
2017-03-23T10:20:24.043Z,615
2017-03-23T10:21:35.650Z,565
2017-03-23T10:22:48.172Z,545
2017-03-23T10:24:00.706Z,525
2017-03-23T10:25:12.913Z,500
2017-03-23T10:26:25.180Z,500
2017-03-23T10:27:37.401Z,490
2017-03-23T10:28:49.623Z,460
2017-03-23T10:30:01.841Z,425
2017-03-23T10:31:14.382Z,385
2017-03-23T10:32:26.632Z,350
2017-03-23T10:33:39.163Z,360
2017-03-23T10:34:51.387Z,370
2017-03-23T10:36:03.923Z,375
2017-03-23T10:37:16.445Z,365
2017-03-23T10:38:28.656Z,350
2017-03-23T10:39:40.912Z,335
2017-03-23T10:40:53.135Z,330
2017-03-23T10:42:05.053Z,330
2017-03-23T10:43:16.995Z,345
2017-03-23T10:44:29.540Z,320
2017-03-23T10:45:42.066Z,295
2017-03-23T10:46:54.587Z,290
2017-03-23T10:48:06.808Z,310
2017-03-23T10:49:19.354Z,315
2017-03-23T10:50:31.579Z,305
2017-03-23T10:51:43.516Z,300
2017-03-23T10:52:55.745Z,300
2017-03-23T10:54:08.290Z,300
2017-03-23T10:55:19.925Z,310
2017-03-23T10:56:32.179Z,320
2017-03-23T10:57:44.416Z,320
2017-03-23T10:58:56.642Z,325
2017-03-23T11:00:09.193Z,340
2017-03-23T11:01:21.733Z,365
2017-03-23T11:02:34.262Z,395
2017-03-23T11:03:46.525Z,415
2017-03-23T11:04:58.767Z,425
2017-03-23T11:06:11.030Z,430
2017-03-23T11:07:23.592Z,415
2017-03-23T11:08:35.841Z,430
2017-03-23T11:09:48.388Z,435
2017-03-23T11:11:00.625Z,440
2017-03-23T11:12:12.567Z,440
2017-03-23T11:13:24.801Z,435
2017-03-23T11:14:36.746Z,425
2017-03-23T11:15:48.941Z,410
2017-03-23T11:17:01.162Z,390
2017-03-23T11:18:13.405Z,375
2017-03-23T11:19:25.644Z,380
2017-03-23T11:20:37.550Z,400
2017-03-23T11:21:49.772Z,430
2017-03-23T11:23:02.293Z,460
2017-03-23T11:24:14.539Z,490
2017-03-23T11:25:27.089Z,530
2017-03-23T11:26:39.602Z,570
2017-03-23T11:27:52.131Z,595
2017-03-23T11:29:04.671Z,605
2017-03-23T11:30:16.608Z,610
2017-03-23T11:31:29.183Z,600
2017-03-23T11:32:41.709Z,570
2017-03-23T11:33:53.631Z,530
2017-03-23T11:35:05.566Z,520
2017-03-23T11:36:17.817Z,525
2017-03-23T11:37:30.369Z,545
2017-03-23T11:38:42.614Z,550
2017-03-23T11:39:55.152Z,550
2017-03-23T11:41:07.681Z,540
2017-03-23T11:42:20.220Z,530
2017-03-23T11:43:32.445Z,525
2017-03-23T11:44:44.700Z,510
2017-03-23T11:45:57.231Z,495
2017-03-23T11:47:09.453Z,485
2017-03-23T11:48:21.678Z,475
2017-03-23T11:49:34.220Z,455
2017-03-23T11:50:46.463Z,435
2017-03-23T11:51:58.683Z,425
2017-03-23T11:53:10.936Z,435
2017-03-23T11:54:22.875Z,425
2017-03-23T11:55:35.410Z,410
2017-03-23T11:56:47.973Z,385
2017-03-23T11:58:00.502Z,360
2017-03-23T11:59:13.061Z,355
2017-03-23T12:00:24.994Z,370
2017-03-23T12:01:37.509Z,400
2017-03-23T12:02:49.754Z,425
2017-03-23T12:04:02.301Z,430
2017-03-23T12:05:14.824Z,430
2017-03-23T12:06:27.396Z,420
2017-03-23T12:07:39.316Z,400
2017-03-23T12:08:51.840Z,395
2017-03-23T12:10:04.359Z,385
2017-03-23T12:11:16.601Z,370
2017-03-23T12:12:28.825Z,360
2017-03-23T12:13:41.368Z,365
2017-03-23T12:14:53.934Z,380
2017-03-23T12:16:06.461Z,395
2017-03-23T12:17:18.073Z,420
2017-03-23T12:18:30.601Z,445
2017-03-23T12:19:43.127Z,465
2017-03-23T12:20:55.048Z,485
2017-03-23T12:22:06.981Z,500
2017-03-23T12:23:19.209Z,500
2017-03-23T12:24:31.415Z,505
2017-03-23T12:25:43.926Z,520
2017-03-23T12:26:56.122Z,540
2017-03-23T12:28:08.386Z,550
2017-03-23T12:29:20.036Z,560
2017-03-23T12:30:31.977Z,570
2017-03-23T12:31:44.206Z,570
2017-03-23T12:32:56.452Z,570
2017-03-23T12:34:08.378Z,560
2017-03-23T12:35:20.016Z,580
2017-03-23T12:36:32.556Z,595
2017-03-23T12:37:44.785Z,615
2017-03-23T12:38:57.007Z,640
2017-03-23T12:40:09.546Z,680
2017-03-23T12:41:22.094Z,725
2017-03-23T12:42:34.623Z,760
2017-03-23T12:43:46.861Z,765
2017-03-23T12:44:59.407Z,745
2017-03-23T12:46:11.953Z,725
2017-03-23T12:47:24.208Z,725
2017-03-23T12:48:36.744Z,800
2017-03-23T12:49:49.270Z,830
2017-03-23T12:51:01.471Z,855
2017-03-23T12:52:13.758Z,875
2017-03-23T12:53:25.683Z,870
2017-03-23T12:54:37.922Z,860
2017-03-23T12:55:50.442Z,820
2017-03-23T12:57:02.674Z,870
2017-03-23T12:58:14.624Z,940
2017-03-23T12:59:26.862Z,955
2017-03-23T13:00:39.412Z,945
2017-03-23T13:01:51.657Z,940
2017-03-23T13:03:03.904Z,930
2017-03-23T13:04:16.199Z,905
2017-03-23T13:05:28.738Z,920
2017-03-23T13:06:40.638Z,915
2017-03-23T13:07:53.138Z,875
2017-03-23T13:09:05.379Z,865
2017-03-23T13:10:17.896Z,845
2017-03-23T13:11:30.443Z,805
2017-03-23T13:12:42.971Z,800
2017-03-23T13:13:55.187Z,770
2017-03-23T13:15:07.438Z,755
2017-03-23T13:16:19.672Z,710
2017-03-23T13:17:31.301Z,680
2017-03-23T13:18:43.525Z,625
2017-03-23T13:19:56.071Z,645
2017-03-23T13:21:08.614Z,655
2017-03-23T13:22:21.156Z,655
2017-03-23T13:23:33.381Z,635
2017-03-23T13:24:45.605Z,680
2017-03-23T13:25:58.168Z,670
2017-03-23T13:27:10.411Z,630
2017-03-23T13:28:22.356Z,620
2017-03-23T13:29:34.264Z,645
2017-03-23T13:30:46.815Z,655
2017-03-23T13:31:59.355Z,675
2017-03-23T13:33:11.577Z,705
2017-03-23T13:34:24.112Z,740
2017-03-23T13:35:36.661Z,770
2017-03-23T13:36:49.205Z,775
2017-03-23T13:38:00.834Z,780
2017-03-23T13:39:13.057Z,780
2017-03-23T13:40:25.299Z,760
2017-03-23T13:41:37.822Z,740
2017-03-23T13:42:50.344Z,695
2017-03-23T13:44:01.983Z,760
2017-03-23T13:45:14.207Z,800
2017-03-23T13:46:26.745Z,750
2017-03-23T13:47:39.277Z,710
2017-03-23T13:48:51.547Z,740
2017-03-23T13:50:04.066Z,740
2017-03-23T13:51:16.587Z,710
2017-03-23T13:52:29.138Z,695
2017-03-23T13:53:41.683Z,670
2017-03-23T13:54:53.599Z,605
2017-03-23T13:56:06.138Z,570
2017-03-23T13:57:18.667Z,600
2017-03-23T13:58:30.887Z,645
2017-03-23T13:59:43.412Z,625
2017-03-23T14:00:55.621Z,585
2017-03-23T14:02:07.571Z,540
2017-03-23T14:03:20.071Z,490
2017-03-23T14:04:32.617Z,460
2017-03-23T14:05:45.143Z,450
2017-03-23T14:06:56.809Z,445
2017-03-23T14:08:09.308Z,430
2017-03-23T14:09:21.828Z,395
2017-03-23T14:10:34.051Z,450
2017-03-23T14:11:46.294Z,450
2017-03-23T14:12:58.814Z,380
2017-03-23T14:14:11.315Z,320
2017-03-23T14:15:23.278Z,285
2017-03-23T14:16:35.777Z,295
2017-03-23T14:17:48.300Z,270
2017-03-23T14:19:00.218Z,250
2017-03-23T14:20:12.442Z,255
2017-03-23T14:21:24.363Z,260
2017-03-23T14:22:36.285Z,280
2017-03-23T14:23:48.529Z,295
2017-03-23T14:25:01.066Z,290
2017-03-23T14:26:13.614Z,255
2017-03-23T14:27:25.843Z,230
2017-03-23T14:28:38.440Z,205
2017-03-23T14:29:51.002Z,185
2017-03-23T14:31:03.547Z,175
2017-03-23T14:32:15.494Z,165
2017-03-23T14:33:27.997Z,150
2017-03-23T14:34:40.239Z,135
2017-03-23T14:35:52.831Z,135
2017-03-23T14:37:05.335Z,135
2017-03-23T14:38:17.580Z,135
2017-03-23T14:39:29.540Z,145
2017-03-23T14:40:41.178Z,145
2017-03-23T14:41:53.712Z,145
2017-03-23T14:43:06.214Z,140
2017-03-23T14:44:18.737Z,130
2017-03-23T14:45:31.314Z,120
2017-03-23T14:46:43.892Z,110
2017-03-23T14:47:56.423Z,110
2017-03-23T14:49:08.966Z,110
2017-03-23T14:50:21.167Z,115
2017-03-23T14:51:33.703Z,110
2017-03-23T14:52:46.234Z,110
2017-03-23T14:53:58.174Z,115
2017-03-23T14:55:10.413Z,115
2017-03-23T14:56:22.999Z,105
2017-03-23T14:57:35.554Z,95
2017-03-23T14:58:48.086Z,90
2017-03-23T15:00:00.311Z,80
2017-03-23T15:01:12.531Z,75
2017-03-23T15:02:24.441Z,70
2017-03-23T15:03:36.688Z,70
2017-03-23T15:04:48.619Z,65
2017-03-23T15:06:00.555Z,65
2017-03-23T15:07:13.085Z,65
2017-03-23T15:08:25.324Z,70
2017-03-23T15:09:36.965Z,75
2017-03-23T15:10:49.197Z,80
2017-03-23T15:12:01.185Z,80
2017-03-23T15:13:13.455Z,75
2017-03-23T15:14:25.684Z,80
2017-03-23T15:15:38.201Z,85
2017-03-23T15:16:50.405Z,90
2017-03-23T15:18:02.642Z,95
2017-03-23T15:19:14.868Z,85
2017-03-23T15:20:27.085Z,80
2017-03-23T15:21:39.627Z,85
2017-03-23T15:22:52.130Z,90
2017-03-23T15:24:04.351Z,90
2017-03-23T15:25:16.885Z,90
2017-03-23T15:26:28.814Z,85
2017-03-23T15:27:41.010Z,80
2017-03-23T15:28:53.576Z,80
2017-03-23T15:30:06.107Z,75
2017-03-23T15:31:18.640Z,75
2017-03-23T15:32:30.868Z,75
2017-03-23T15:33:43.432Z,75
2017-03-23T15:34:55.966Z,80
2017-03-23T15:36:08.507Z,80
2017-03-23T15:37:21.052Z,80
2017-03-23T15:38:33.278Z,80
2017-03-23T15:39:45.794Z,80
2017-03-23T15:40:58.294Z,80
2017-03-23T15:42:10.829Z,80
2017-03-23T15:43:22.753Z,85
2017-03-23T15:44:35.255Z,90
2017-03-23T15:45:47.199Z,90
2017-03-23T15:46:59.719Z,90
2017-03-23T15:48:11.961Z,90
2017-03-23T15:49:24.215Z,85
2017-03-23T15:50:36.162Z,85
2017-03-23T15:51:47.828Z,80
2017-03-23T15:53:00.070Z,75
2017-03-23T15:54:12.595Z,75
2017-03-23T15:55:25.119Z,75
2017-03-23T15:56:37.617Z,75
2017-03-23T15:57:49.885Z,80
2017-03-23T15:59:02.396Z,80
2017-03-23T16:00:14.928Z,80
2017-03-23T16:01:27.475Z,80
2017-03-23T16:02:39.394Z,80
2017-03-23T16:03:51.662Z,80
2017-03-23T16:05:03.886Z,80
2017-03-23T16:06:16.106Z,85
2017-03-23T16:07:28.645Z,80
2017-03-23T16:08:40.564Z,80
2017-03-23T16:09:52.177Z,75
2017-03-23T16:11:04.391Z,75
2017-03-23T16:12:16.611Z,75
2017-03-23T16:13:28.212Z,80
2017-03-23T16:14:40.730Z,85
2017-03-23T16:15:52.947Z,80
2017-03-23T16:17:05.443Z,75
2017-03-23T16:18:17.956Z,70
2017-03-23T16:19:29.884Z,65
2017-03-23T16:20:42.106Z,60
2017-03-23T16:21:54.328Z,60
2017-03-23T16:23:06.551Z,55
2017-03-23T16:24:18.445Z,55
2017-03-23T16:25:30.992Z,55
2017-03-23T16:26:43.552Z,60
2017-03-23T16:27:55.786Z,60
2017-03-23T16:29:08.027Z,65
2017-03-23T16:30:20.281Z,65
2017-03-23T16:31:32.837Z,65
2017-03-23T16:32:45.385Z,65
2017-03-23T16:33:57.903Z,60
2017-03-23T16:35:09.532Z,60
2017-03-23T16:36:21.456Z,55
2017-03-23T16:37:33.973Z,55
2017-03-23T16:38:46.490Z,50
2017-03-23T16:39:59.007Z,45
2017-03-23T16:41:11.539Z,40
2017-03-23T16:42:24.074Z,35
2017-03-23T16:43:36.053Z,40
2017-03-23T16:44:48.574Z,45
2017-03-23T16:46:01.073Z,45
2017-03-23T16:47:13.608Z,45
2017-03-23T16:48:26.132Z,40
2017-03-23T16:49:38.379Z,40
2017-03-23T16:50:50.946Z,40
2017-03-23T16:52:03.455Z,35
2017-03-23T16:53:15.674Z,35
2017-03-23T16:54:28.221Z,30
2017-03-23T16:55:40.480Z,25
2017-03-23T16:56:53.011Z,25
2017-03-23T16:58:05.533Z,25
2017-03-23T16:59:18.054Z,20
2017-03-23T17:00:30.571Z,20
2017-03-23T17:01:43.085Z,20
2017-03-23T17:02:55.317Z,20